Songer, Illinois
Current Conditions -  °F | °C
As of 11:55 PM on Sunday 19 Oct 2014 (Local Time) from KFOA Reporting Station
Clear Clear  
Wind Chill: 46°   Ceiling: Unl
Heat Index: 47°   Visibility: 10mi
Dew Point: 45°   Wind: 5mph
Humidity: 91%   Direction: 180°S
Pressure: 30.05"   Gusts: NA
Location:  38.6949°N, 88.6407°W
Report Text: KFOA 200455Z AUTO 18004KT 10SM CLR 09/07 A3005 RMK AO2 T00860072
Loading
Personal Weather Stations






























Interactive Weather Map
Tropical Storm Tracking
New forecast layout! Learn more

10-Day Weather Forecast

Advertisements
Track Severe Weather on mobile